createdAt,value
2023-05-18T00:02:54.393Z,14.04
2023-05-18T00:22:54.324Z,14.04
2023-05-18T00:42:54.315Z,14.04
2023-05-18T01:02:54.315Z,14.04
2023-05-18T01:22:54.247Z,14.04
2023-05-18T02:02:54.271Z,14.04
2023-05-18T02:22:54.146Z,14.05
2023-05-18T02:42:53.852Z,14.05
2023-05-18T03:02:54.115Z,14.05
2023-05-18T03:22:54.055Z,14.05
2023-05-18T04:02:54.001Z,14.05
2023-05-18T04:22:53.956Z,14.05
2023-05-18T04:42:53.936Z,14.05
2023-05-18T05:02:54.027Z,14.05
2023-05-18T05:22:53.905Z,14.04
2023-05-18T05:42:53.820Z,14.04
2023-05-18T06:02:53.865Z,14.04
2023-05-18T06:22:53.769Z,14.04
2023-05-18T06:42:53.741Z,14.04
2023-05-18T07:02:53.724Z,14.04
2023-05-18T07:22:53.674Z,14.04
2023-05-18T07:42:53.638Z,14.04
2023-05-18T08:02:53.756Z,14.03
2023-05-18T08:22:53.584Z,14.03
2023-05-18T08:42:53.540Z,14.02
2023-05-18T09:02:53.535Z,14.02
2023-05-18T09:22:53.471Z,14.01
2023-05-18T11:02:53.364Z,13.96
2023-05-18T11:22:53.287Z,13.96
2023-05-18T11:42:53.239Z,13.95
2023-05-18T12:02:52.990Z,13.95
2023-05-18T12:22:53.412Z,13.94
2023-05-18T12:42:53.175Z,13.94
2023-05-18T13:02:53.199Z,13.94
2023-05-18T13:22:53.084Z,13.94
2023-05-18T13:42:53.030Z,13.93
2023-05-18T14:02:53.183Z,13.93
2023-05-18T14:22:52.975Z,13.92
2023-05-18T14:42:53.851Z,13.91
2023-05-18T15:02:53.001Z,13.9
2023-05-18T16:02:52.841Z,13.88
2023-05-18T16:22:52.764Z,13.87
2023-05-18T16:42:52.680Z,13.86
2023-05-18T17:02:52.635Z,13.86
2023-05-18T17:22:52.639Z,13.85
2023-05-18T17:42:52.629Z,13.85
2023-05-18T18:02:52.615Z,13.85
2023-05-18T18:22:52.264Z,13.85
2023-05-18T18:42:52.498Z,13.85
2023-05-18T19:02:52.537Z,13.85
2023-05-18T19:42:52.384Z,13.85
2023-05-18T20:02:52.440Z,13.85
2023-05-18T20:22:52.296Z,13.85
2023-05-18T20:42:52.292Z,13.85
2023-05-18T21:02:52.308Z,13.85
2023-05-18T21:42:52.238Z,13.86
2023-05-18T22:02:52.169Z,13.86
2023-05-18T22:22:52.123Z,13.87
2023-05-18T22:42:52.074Z,13.87
2023-05-18T23:02:52.100Z,13.87
2023-05-18T23:22:52.012Z,13.88
